Time;durP1;ratioP1;P1;durP2;ratioP2;P2;SDS_P1;SDS_P2;PMS_P1;PMS_P2;Temp;Humidity;BMP_temperature;BMP_pressure;BME280_temperature;BME280_humidity;BME280_pressure;Samples;Min_cycle;Max_cycle;Signal;HPM_P1;HPM_P2
2022/03/15 00:00:54;;;;;;;37.70;16.65;;;5.60;99.90;;;;;;6196023;23;20074;-89
2022/03/15 00:03:21;;;;;;;38.03;16.27;;;5.60;99.90;;;;;;6195895;23;20008;-86
2022/03/15 00:05:48;;;;;;;40.00;17.85;;;5.60;99.90;;;;;;6195788;23;20020;-86
2022/03/15 00:08:19;;;;;;;42.80;16.45;;;5.60;99.90;;;;;;6195848;23;20060;-87
2022/03/15 00:10:48;;;;;;;43.55;17.25;;;5.50;99.90;;;;;;6196137;23;20331;-86
2022/03/15 00:13:15;;;;;;;41.13;17.48;;;5.50;99.90;;;;;;6196160;23;20429;-86
2022/03/15 00:15:42;;;;;;;36.05;16.10;;;5.50;99.90;;;;;;6195971;23;20008;-86
2022/03/15 00:18:09;;;;;;;34.72;13.98;;;5.50;99.90;;;;;;6190611;23;20063;-86
2022/03/15 00:20:36;;;;;;;37.28;15.18;;;5.40;99.90;;;;;;6190939;23;20453;-86
2022/03/15 00:23:03;;;;;;;33.13;14.45;;;5.40;99.90;;;;;;6190751;23;20000;-86
2022/03/15 00:25:31;;;;;;;32.70;15.63;;;5.40;99.90;;;;;;6215776;23;20020;-87
2022/03/15 00:27:58;;;;;;;38.17;15.20;;;5.40;99.90;;;;;;6190551;23;20004;-87
2022/03/15 00:30:26;;;;;;;34.42;14.65;;;5.40;99.90;;;;;;6215941;23;20008;-86
2022/03/15 00:32:55;;;;;;;25.70;13.13;;;5.40;99.90;;;;;;6191320;23;20012;-87
2022/03/15 00:35:23;;;;;;;37.42;15.43;;;5.40;99.90;;;;;;6215694;23;20004;-86
2022/03/15 00:37:53;;;;;;;26.63;11.40;;;5.40;99.90;;;;;;6190784;23;20019;-86
2022/03/15 00:40:39;;;;;;;31.73;11.30;;;5.20;99.90;;;;;;6215681;23;20087;-86
2022/03/15 00:43:06;;;;;;;29.17;13.02;;;5.30;99.90;;;;;;6215674;23;20446;-85
2022/03/15 00:45:32;;;;;;;27.67;12.35;;;5.00;99.90;;;;;;6190502;23;20009;-86
2022/03/15 00:47:59;;;;;;;23.50;11.18;;;5.00;99.90;;;;;;6215802;23;20008;-87
2022/03/15 00:50:29;;;;;;;36.92;12.68;;;5.10;99.90;;;;;;6190576;23;20001;-86
2022/03/15 00:52:59;;;;;;;28.10;13.07;;;5.20;99.90;;;;;;6215529;23;20352;-86
2022/03/15 00:55:26;;;;;;;29.02;12.75;;;5.30;99.90;;;;;;6215850;23;20348;-86
2022/03/15 00:57:52;;;;;;;29.98;12.20;;;5.30;99.90;;;;;;6190685;23;20012;-86
2022/03/15 01:00:19;;;;;;;28.33;12.25;;;5.30;99.90;;;;;;6215496;23;20005;-85
2022/03/15 01:02:48;;;;;;;32.92;12.60;;;5.30;99.90;;;;;;6190675;23;20016;-86
2022/03/15 01:05:16;;;;;;;25.75;11.20;;;5.30;99.90;;;;;;6190398;23;20016;-86
2022/03/15 01:07:45;;;;;;;27.77;11.80;;;5.30;99.90;;;;;;6190487;23;20032;-87
2022/03/15 01:10:14;;;;;;;31.50;11.45;;;5.30;99.90;;;;;;6190916;23;20016;-85
2022/03/15 01:12:40;;;;;;;33.72;12.27;;;5.30;99.90;;;;;;6190584;23;20508;-86
2022/03/15 01:15:08;;;;;;;27.55;11.00;;;5.30;99.90;;;;;;6215410;23;20031;-86
2022/03/15 01:17:38;;;;;;;33.22;12.38;;;5.30;99.90;;;;;;6190413;23;20028;-87
2022/03/15 01:20:08;;;;;;;28.15;11.43;;;5.30;99.90;;;;;;6190502;23;20087;-85
2022/03/15 01:22:37;;;;;;;30.83;12.43;;;5.20;99.90;;;;;;6191074;23;20008;-86
2022/03/15 01:25:07;;;;;;;34.40;13.27;;;5.20;99.90;;;;;;6190725;23;20032;-85
2022/03/15 01:27:36;;;;;;;26.95;11.45;;;5.10;99.90;;;;;;6190587;23;20013;-86
2022/03/15 01:30:06;;;;;;;31.48;11.77;;;5.10;99.90;;;;;;6190935;23;20427;-86
2022/03/15 01:32:33;;;;;;;34.75;12.57;;;5.10;99.90;;;;;;6190356;23;20009;-86
2022/03/15 01:34:59;;;;;;;30.48;12.32;;;5.10;99.90;;;;;;6190478;23;20448;-86
2022/03/15 01:37:26;;;;;;;22.38;10.13;;;5.00;99.90;;;;;;6215637;23;20040;-86
2022/03/15 01:39:52;;;;;;;29.92;12.90;;;4.90;99.90;;;;;;6190315;23;20055;-87
2022/03/15 01:42:19;;;;;;;25.63;11.70;;;5.00;99.90;;;;;;6190611;23;20012;-86
2022/03/15 01:44:49;;;;;;;32.63;12.32;;;5.00;99.90;;;;;;6190375;23;20431;-86
2022/03/15 01:47:17;;;;;;;29.17;11.30;;;5.00;99.90;;;;;;6215175;23;20020;-85
2022/03/15 01:49:44;;;;;;;35.55;13.48;;;4.90;99.90;;;;;;6190334;23;20056;-87
2022/03/15 01:52:15;;;;;;;26.58;10.70;;;4.90;99.90;;;;;;6215999;23;20059;-85
2022/03/15 01:54:44;;;;;;;32.35;11.80;;;4.90;99.90;;;;;;6217475;23;20419;-86
2022/03/15 01:57:14;;;;;;;31.95;12.25;;;4.90;99.90;;;;;;6192702;23;20017;-86
2022/03/15 01:59:45;;;;;;;28.42;10.93;;;4.90;99.90;;;;;;6217206;23;20001;-86
2022/03/15 02:02:12;;;;;;;27.60;10.18;;;4.90;99.90;;;;;;6217430;23;20013;-86
2022/03/15 02:04:42;;;;;;;30.08;11.05;;;4.90;99.90;;;;;;6192369;23;20028;-86
2022/03/15 02:07:15;;;;;;;31.75;11.10;;;4.80;99.90;;;;;;6217073;23;20008;-87
2022/03/15 02:09:43;;;;;;;25.38;10.07;;;4.70;99.90;;;;;;6192355;23;20060;-86
2022/03/15 02:12:10;;;;;;;30.70;11.80;;;4.60;99.90;;;;;;6192175;23;20028;-87
2022/03/15 02:14:37;;;;;;;29.42;11.07;;;4.60;99.90;;;;;;6216967;23;20009;-86
2022/03/15 02:17:04;;;;;;;28.55;10.07;;;4.50;99.90;;;;;;6191788;23;20016;-86
2022/03/15 02:19:30;;;;;;;30.50;11.70;;;4.50;99.90;;;;;;6192054;23;20016;-86
2022/03/15 02:22:00;;;;;;;27.33;11.63;;;4.50;99.90;;;;;;6192251;23;20000;-87
2022/03/15 02:24:26;;;;;;;24.13;10.15;;;4.40;99.90;;;;;;6192008;23;20375;-87
2022/03/15 02:26:53;;;;;;;25.35;10.18;;;4.40;99.90;;;;;;6191891;23;20082;-86
2022/03/15 02:29:21;;;;;;;25.90;10.40;;;4.30;99.90;;;;;;6191951;23;20008;-86
2022/03/15 02:31:54;;;;;;;28.73;11.15;;;4.20;99.90;;;;;;6191783;23;20054;-86
2022/03/15 02:34:25;;;;;;;24.95;10.93;;;4.20;99.90;;;;;;6192778;23;20016;-86
2022/03/15 02:36:52;;;;;;;30.52;12.02;;;4.10;99.90;;;;;;6216851;23;20008;-86
2022/03/15 02:39:18;;;;;;;33.45;11.32;;;4.10;99.90;;;;;;6191936;23;20009;-85
2022/03/15 02:41:45;;;;;;;26.25;10.70;;;4.10;99.90;;;;;;6216880;23;20032;-85
2022/03/15 02:44:11;;;;;;;29.67;11.40;;;4.10;99.90;;;;;;6191786;23;20008;-86
2022/03/15 02:46:39;;;;;;;27.98;10.27;;;4.00;99.90;;;;;;6191535;23;20017;-86
2022/03/15 02:49:09;;;;;;;29.52;10.82;;;4.00;99.90;;;;;;6191686;23;20010;-86
2022/03/15 02:51:36;;;;;;;27.42;11.00;;;4.00;99.90;;;;;;6191638;23;20013;-85
2022/03/15 02:54:07;;;;;;;25.15;10.85;;;4.00;99.90;;;;;;6191868;23;20082;-86
2022/03/15 02:56:35;;;;;;;27.27;10.82;;;4.10;99.90;;;;;;6191491;23;20012;-86
2022/03/15 02:59:03;;;;;;;27.42;9.80;;;4.00;99.90;;;;;;6191738;23;20331;-86
2022/03/15 03:01:29;;;;;;;26.67;11.45;;;4.10;99.90;;;;;;6191820;23;20016;-86
2022/03/15 03:03:56;;;;;;;28.55;11.70;;;4.10;99.90;;;;;;6191310;23;20415;-86
2022/03/15 03:06:22;;;;;;;30.08;11.73;;;4.20;99.90;;;;;;6191524;23;20027;-86
2022/03/15 03:08:49;;;;;;;26.65;11.10;;;4.20;99.90;;;;;;6191663;23;20453;-85
2022/03/15 03:11:16;;;;;;;27.23;10.57;;;4.20;99.90;;;;;;6216487;23;20008;-86
2022/03/15 03:13:44;;;;;;;28.85;11.10;;;4.20;99.90;;;;;;6191632;23;20036;-86
2022/03/15 03:16:13;;;;;;;27.88;11.55;;;4.20;99.90;;;;;;6194738;23;20013;-86
2022/03/15 03:18:40;;;;;;;29.55;11.45;;;4.20;99.90;;;;;;6196311;23;20091;-86
2022/03/15 03:21:07;;;;;;;31.58;11.30;;;4.10;99.90;;;;;;6196653;23;20004;-85
2022/03/15 03:23:35;;;;;;;32.58;13.52;;;4.20;99.90;;;;;;6196612;23;20430;-86
2022/03/15 03:26:03;;;;;;;39.35;12.60;;;4.20;99.90;;;;;;6196237;23;20020;-85
2022/03/15 03:28:39;;;;;;;41.25;14.00;;;4.20;99.90;;;;;;6196512;23;20028;-86
2022/03/15 03:31:08;;;;;;;37.17;14.32;;;4.20;99.90;;;;;;6196326;23;20012;-86
2022/03/15 03:33:36;;;;;;;30.67;11.85;;;4.20;99.90;;;;;;6196198;23;20435;-87
2022/03/15 03:36:03;;;;;;;40.90;13.50;;;4.20;99.90;;;;;;6196338;23;20134;-86
2022/03/15 03:38:30;;;;;;;29.42;11.98;;;4.20;99.90;;;;;;6196194;23;20000;-85
2022/03/15 03:40:57;;;;;;;35.95;13.95;;;4.20;99.90;;;;;;6196436;23;20061;-92
2022/03/15 03:43:25;;;;;;;37.78;13.63;;;4.20;99.90;;;;;;6196149;23;20004;-86
2022/03/15 03:45:52;;;;;;;39.60;13.52;;;4.10;99.90;;;;;;6221205;23;20024;-86
2022/03/15 03:48:25;;;;;;;38.92;15.27;;;4.10;99.90;;;;;;6196054;23;20000;-86
2022/03/15 03:50:53;;;;;;;39.05;13.68;;;4.10;99.90;;;;;;6221059;23;20015;-85
2022/03/15 03:53:21;;;;;;;35.50;15.43;;;4.10;99.90;;;;;;6196309;23;20448;-85
2022/03/15 03:55:53;;;;;;;35.88;13.63;;;4.00;99.90;;;;;;6196031;23;20019;-86
2022/03/15 03:58:20;;;;;;;40.00;15.35;;;4.00;99.90;;;;;;6196190;23;20008;-86
2022/03/15 04:00:47;;;;;;;30.65;13.23;;;3.90;99.90;;;;;;6196306;23;20004;-86
2022/03/15 04:03:16;;;;;;;36.00;14.18;;;3.80;99.90;;;;;;6196113;23;20008;-85
2022/03/15 04:05:47;;;;;;;38.53;14.30;;;3.80;99.90;;;;;;6196033;23;20066;-86
2022/03/15 04:08:14;;;;;;;39.92;15.00;;;3.80;99.90;;;;;;6195851;23;20337;-86
2022/03/15 04:10:41;;;;;;;38.30;13.23;;;3.70;99.90;;;;;;6195749;23;20004;-87
2022/03/15 04:13:07;;;;;;;38.55;14.60;;;3.70;99.90;;;;;;6196118;23;20008;-85
2022/03/15 04:15:35;;;;;;;34.28;14.05;;;3.70;99.90;;;;;;6195592;23;19996;-85
2022/03/15 04:18:03;;;;;;;33.20;13.57;;;3.70;99.90;;;;;;6190758;23;20020;-85
2022/03/15 04:20:37;;;;;;;40.03;14.68;;;3.60;99.90;;;;;;6191191;23;20005;-85
2022/03/15 04:23:03;;;;;;;38.40;15.25;;;3.70;99.90;;;;;;6215849;23;20008;-85
2022/03/15 04:25:30;;;;;;;33.75;14.07;;;3.70;99.90;;;;;;6191025;23;20009;-85
2022/03/15 04:28:00;;;;;;;36.40;14.10;;;3.70;99.90;;;;;;6190742;23;20375;-86
2022/03/15 04:30:31;;;;;;;40.22;14.82;;;3.60;99.90;;;;;;6190881;23;20066;-86
2022/03/15 04:33:01;;;;;;;35.65;13.73;;;3.60;99.90;;;;;;6215671;23;20009;-85
2022/03/15 04:35:29;;;;;;;38.58;14.20;;;3.60;99.90;;;;;;6215636;23;20012;-85
2022/03/15 04:37:57;;;;;;;36.00;14.07;;;3.50;99.90;;;;;;6190843;23;20012;-86
2022/03/15 04:40:23;;;;;;;31.92;12.20;;;3.50;99.90;;;;;;6190633;23;20036;-85
2022/03/15 04:42:50;;;;;;;37.97;14.32;;;3.40;99.90;;;;;;6190714;23;20065;-86
2022/03/15 04:45:17;;;;;;;30.67;12.30;;;3.40;99.90;;;;;;6215293;23;20020;-86
2022/03/15 04:47:43;;;;;;;28.88;12.27;;;3.40;99.90;;;;;;6190761;23;20012;-86
2022/03/15 04:50:13;;;;;;;26.42;11.30;;;3.40;99.90;;;;;;6215593;23;20009;-85
2022/03/15 04:52:43;;;;;;;31.77;12.65;;;3.40;99.90;;;;;;6190854;23;20059;-86
2022/03/15 04:55:09;;;;;;;27.95;11.70;;;3.40;99.90;;;;;;6190638;23;20035;-86
2022/03/15 04:57:36;;;;;;;28.80;11.63;;;3.40;99.90;;;;;;6190573;23;20040;-85
2022/03/15 05:00:09;;;;;;;32.50;11.65;;;3.40;99.90;;;;;;6215574;23;20013;-86
2022/03/15 05:02:39;;;;;;;26.55;12.57;;;3.30;99.90;;;;;;6190605;23;20016;-86
2022/03/15 05:05:07;;;;;;;36.65;12.60;;;3.30;99.90;;;;;;6190622;23;20067;-85
2022/03/15 05:07:35;;;;;;;31.17;11.80;;;3.30;99.90;;;;;;6190336;23;20015;-85
2022/03/15 05:12:48;;;;;;;27.30;11.73;;;3.30;99.90;;;;;;6215732;23;20012;-85
2022/03/15 05:15:15;;;;;;;27.27;11.35;;;3.40;99.90;;;;;;6190338;23;20374;-85
2022/03/15 05:17:42;;;;;;;31.02;11.25;;;3.40;99.90;;;;;;6215309;23;20099;-85
2022/03/15 05:20:11;;;;;;;28.85;12.02;;;3.50;99.90;;;;;;6190502;23;20004;-85
2022/03/15 05:22:37;;;;;;;25.27;10.20;;;3.50;99.90;;;;;;6216615;23;20446;-90
2022/03/15 05:25:05;;;;;;;29.33;10.93;;;3.50;99.90;;;;;;6190422;23;20019;-87
2022/03/15 05:27:35;;;;;;;29.10;11.68;;;3.60;99.90;;;;;;6191556;23;20019;-87
2022/03/15 05:30:04;;;;;;;24.88;10.90;;;3.60;99.90;;;;;;6192459;23;20012;-87
2022/03/15 05:32:31;;;;;;;20.60;10.30;;;3.60;99.90;;;;;;6193019;23;20012;-91
2022/03/15 05:34:58;;;;;;;26.25;10.90;;;3.60;99.90;;;;;;6193088;23;20005;-88
2022/03/15 05:37:25;;;;;;;34.85;11.77;;;3.60;99.90;;;;;;6192580;23;20012;-89
2022/03/15 05:39:52;;;;;;;26.48;10.63;;;3.70;99.90;;;;;;6192774;23;20013;-93
2022/03/15 05:42:18;;;;;;;20.83;10.73;;;3.70;99.90;;;;;;6192276;23;20063;-85
2022/03/15 05:44:46;;;;;;;21.88;10.60;;;3.70;99.90;;;;;;6217394;23;20016;-84
2022/03/15 05:47:14;;;;;;;22.02;10.05;;;3.80;99.90;;;;;;6192295;23;20004;-84
2022/03/15 05:49:41;;;;;;;23.63;10.63;;;3.80;99.90;;;;;;6217282;23;20442;-86
2022/03/15 05:52:08;;;;;;;26.35;9.90;;;3.80;99.90;;;;;;6192534;23;20009;-86
2022/03/15 05:54:35;;;;;;;24.77;9.43;;;4.00;99.90;;;;;;6217191;23;20011;-87
2022/03/15 05:57:02;;;;;;;19.63;9.25;;;4.00;99.90;;;;;;6192384;23;20354;-87
2022/03/15 05:59:29;;;;;;;18.55;9.70;;;4.10;99.90;;;;;;6192132;23;20005;-88
2022/03/15 06:01:56;;;;;;;19.50;9.75;;;4.20;99.90;;;;;;6216927;23;20008;-86
2022/03/15 06:04:26;;;;;;;26.23;9.73;;;4.30;99.90;;;;;;6192074;23;20330;-84
2022/03/15 06:07:01;;;;;;;23.27;9.65;;;4.40;99.90;;;;;;6217039;23;20047;-87
2022/03/15 06:09:29;;;;;;;25.83;9.32;;;4.50;99.90;;;;;;6192199;23;20040;-87
2022/03/15 06:11:55;;;;;;;25.23;9.50;;;4.60;99.90;;;;;;6217531;23;20008;-88
2022/03/15 06:14:22;;;;;;;22.58;9.60;;;4.70;99.90;;;;;;6192182;23;20012;-87
2022/03/15 06:16:49;;;;;;;21.05;9.35;;;4.80;99.90;;;;;;6217201;23;20041;-90
2022/03/15 06:19:17;;;;;;;23.63;9.15;;;5.00;99.90;;;;;;6191879;23;20013;-86
2022/03/15 06:21:44;;;;;;;22.35;9.30;;;5.10;99.90;;;;;;6216966;23;20008;-88
2022/03/15 06:24:11;;;;;;;19.05;8.43;;;5.20;99.90;;;;;;6191774;23;20079;-90
2022/03/15 06:26:38;;;;;;;19.92;8.35;;;5.30;99.90;;;;;;6216887;23;20506;-87
2022/03/15 06:29:06;;;;;;;19.77;9.27;;;5.30;99.90;;;;;;6192281;23;20496;-88
2022/03/15 06:31:33;;;;;;;23.48;9.07;;;5.30;99.90;;;;;;6216839;23;20008;-89
2022/03/15 06:34:01;;;;;;;23.92;9.77;;;5.60;99.90;;;;;;6191964;23;20009;-88
2022/03/15 06:36:28;;;;;;;22.95;10.38;;;5.80;99.90;;;;;;6217016;23;20067;-86
2022/03/15 06:38:56;;;;;;;16.50;8.95;;;6.00;99.90;;;;;;6191646;23;20043;-90
2022/03/15 06:41:23;;;;;;;22.30;9.13;;;6.10;99.90;;;;;;6192001;23;20012;-92
2022/03/15 06:43:49;;;;;;;27.67;11.65;;;6.20;99.90;;;;;;6191883;23;20009;-90
2022/03/15 06:46:15;;;;;;;24.08;10.60;;;6.30;99.90;;;;;;6191750;23;20025;-87
2022/03/15 06:48:42;;;;;;;27.13;11.13;;;6.50;99.90;;;;;;6191961;23;20008;-84
2022/03/15 06:51:10;;;;;;;25.27;10.95;;;6.60;99.90;;;;;;6191790;23;20012;-84
2022/03/15 06:53:37;;;;;;;23.83;10.60;;;6.80;99.90;;;;;;6216807;23;20008;-83
2022/03/15 06:56:04;;;;;;;19.58;9.32;;;7.00;99.90;;;;;;6191276;23;20005;-83
2022/03/15 06:58:31;;;;;;;18.15;8.82;;;7.20;99.90;;;;;;6217961;23;20028;-84
2022/03/15 07:00:57;;;;;;;18.48;8.90;;;7.30;99.90;;;;;;6191215;23;20084;-85
2022/03/15 07:03:24;;;;;;;18.85;8.63;;;7.40;99.90;;;;;;6191483;23;20084;-84
2022/03/15 07:05:51;;;;;;;20.00;9.95;;;7.60;99.90;;;;;;6191349;23;20070;-83
2022/03/15 07:08:19;;;;;;;17.58;8.45;;;7.70;99.90;;;;;;6216341;23;20004;-82
2022/03/15 07:10:45;;;;;;;16.70;8.13;;;7.80;99.90;;;;;;6191250;23;20009;-83
2022/03/15 07:13:12;;;;;;;18.30;7.68;;;7.90;99.90;;;;;;6191061;23;20055;-83
2022/03/15 07:15:38;;;;;;;16.92;7.88;;;8.10;99.90;;;;;;6190857;23;20004;-83
2022/03/15 07:18:05;;;;;;;17.02;7.38;;;8.20;99.90;;;;;;6190747;23;20027;-83
2022/03/15 07:20:31;;;;;;;13.90;6.80;;;8.30;99.90;;;;;;6166056;23;20039;-83
2022/03/15 07:23:01;;;;;;;22.23;8.15;;;8.40;99.90;;;;;;6192465;23;20016;-93
2022/03/15 07:25:28;;;;;;;15.98;7.43;;;8.60;99.90;;;;;;6165020;23;20025;-92
2022/03/15 07:27:54;;;;;;;12.57;6.78;;;8.80;99.90;;;;;;6191716;23;20376;-91
2022/03/15 07:30:21;;;;;;;17.48;6.63;;;9.00;99.90;;;;;;6167338;23;20356;-92
2022/03/15 07:32:48;;;;;;;8.80;4.50;;;9.10;99.90;;;;;;6171436;23;20005;-92
2022/03/15 07:35:14;;;;;;;13.43;4.38;;;9.40;99.90;;;;;;6170524;23;20012;-92
2022/03/15 07:37:55;;;;;;;7.75;3.35;;;9.60;99.90;;;;;;6166771;23;20338;-94
2022/03/15 07:40:23;;;;;;;8.65;3.30;;;9.80;99.90;;;;;;6166254;23;20015;-94
2022/03/15 07:42:51;;;;;;;12.95;3.45;;;9.90;99.90;;;;;;6166711;23;20005;-92
2022/03/15 07:45:18;;;;;;;6.45;3.40;;;10.10;99.90;;;;;;6166745;23;20037;-92
2022/03/15 07:47:47;;;;;;;7.63;3.70;;;10.30;99.90;;;;;;6166661;23;20009;-92
2022/03/15 07:50:15;;;;;;;6.53;3.67;;;10.60;99.90;;;;;;6165726;23;20059;-94
2022/03/15 07:52:41;;;;;;;7.88;3.40;;;10.80;99.90;;;;;;6165948;23;20012;-94
2022/03/15 07:55:09;;;;;;;7.63;2.97;;;10.90;99.90;;;;;;6166729;23;20009;-93
2022/03/15 07:57:36;;;;;;;4.68;2.78;;;10.90;99.90;;;;;;6166052;23;20453;-91
2022/03/15 08:00:04;;;;;;;6.53;2.78;;;10.80;99.90;;;;;;6191129;23;20013;-94
2022/03/15 08:02:39;;;;;;;6.43;3.05;;;10.90;99.90;;;;;;6192933;23;20438;-93
2022/03/15 08:05:06;;;;;;;5.18;2.45;;;10.80;99.90;;;;;;6166600;23;20017;-94
2022/03/15 08:07:35;;;;;;;4.70;2.55;;;10.90;99.90;;;;;;6166250;23;20004;-93
2022/03/15 08:10:03;;;;;;;4.13;2.53;;;11.10;99.90;;;;;;6166143;23;20008;-93
2022/03/15 08:12:29;;;;;;;4.40;2.42;;;11.30;99.90;;;;;;6165877;23;20427;-94
2022/03/15 08:14:56;;;;;;;3.42;2.60;;;11.30;99.90;;;;;;6165960;23;20011;-93
2022/03/15 08:17:22;;;;;;;4.65;2.33;;;11.40;99.90;;;;;;6178491;23;20016;-93
2022/03/15 08:19:49;;;;;;;5.28;2.50;;;11.60;99.90;;;;;;6215744;23;20016;-92
2022/03/15 08:22:15;;;;;;;5.45;2.22;;;11.70;99.90;;;;;;6190858;23;20334;-93
2022/03/15 08:24:42;;;;;;;5.10;2.70;;;11.80;99.90;;;;;;6216179;23;20012;-92
2022/03/15 08:27:12;;;;;;;4.82;2.38;;;11.90;99.90;;;;;;6190734;23;20009;-93
2022/03/15 08:29:38;;;;;;;6.65;3.00;;;12.10;99.90;;;;;;6215664;23;20008;-92
2022/03/15 08:34:34;;;;;;;6.63;2.70;;;12.10;99.90;;;;;;6190726;23;20450;-91
2022/03/15 08:37:01;;;;;;;3.33;2.20;;;12.40;99.90;;;;;;6165948;23;20009;-91
2022/03/15 08:39:30;;;;;;;7.22;2.95;;;12.60;99.90;;;;;;6165708;23;20012;-93
2022/03/15 08:41:57;;;;;;;4.22;2.05;;;12.50;99.90;;;;;;6166049;23;20019;-90
2022/03/15 08:44:24;;;;;;;6.55;2.38;;;12.80;99.90;;;;;;6165820;23;20335;-91
2022/03/15 08:46:52;;;;;;;4.95;2.58;;;12.50;99.90;;;;;;6165692;23;20036;-91
2022/03/15 08:49:19;;;;;;;3.55;1.98;;;12.40;99.90;;;;;;6165679;23;20012;-92
2022/03/15 08:51:48;;;;;;;4.00;2.00;;;12.30;99.90;;;;;;6165840;23;20074;-92
2022/03/15 08:54:15;;;;;;;6.80;2.40;;;12.40;99.90;;;;;;6165804;23;20020;-90
2022/03/15 08:56:41;;;;;;;3.35;2.17;;;12.60;99.90;;;;;;6165773;23;20015;-92
2022/03/15 08:59:16;;;;;;;5.35;2.15;;;12.70;99.90;;;;;;6165674;23;20009;-90
2022/03/15 09:01:43;;;;;;;6.93;2.53;;;12.70;99.90;;;;;;6165767;23;20036;-91
2022/03/15 09:04:10;;;;;;;6.40;2.50;;;12.80;99.90;;;;;;6165748;23;20008;-92
2022/03/15 09:06:37;;;;;;;5.18;2.88;;;12.80;99.90;;;;;;6165612;23;20044;-94
2022/03/15 09:09:04;;;;;;;6.07;2.45;;;12.90;99.90;;;;;;6165635;23;20005;-92
2022/03/15 09:11:33;;;;;;;5.40;3.13;;;12.60;99.90;;;;;;6165747;23;20005;-94
2022/03/15 09:13:59;;;;;;;3.92;2.35;;;12.60;99.90;;;;;;6165794;23;20009;-91
2022/03/15 09:16:29;;;;;;;3.55;2.40;;;12.60;99.90;;;;;;6167077;23;20308;-93
2022/03/15 09:21:31;;;;;;;4.82;3.35;;;12.50;99.90;;;;;;6224397;23;20028;-92
2022/03/15 09:24:26;;;;;;;3.47;2.50;;;12.40;99.90;;;;;;6184402;23;20024;-93
2022/03/15 09:26:53;;;;;;;;;;;12.40;99.90;;;;;;6167296;23;20071;-92
2022/03/15 09:29:19;;;;;;;4.72;2.00;;;12.30;99.90;;;;;;6165573;23;19900;-91
2022/03/15 09:31:45;;;;;;;3.00;2.25;;;12.30;99.90;;;;;;6165450;23;20013;-91
2022/03/15 09:34:17;;;;;;;3.25;2.17;;;12.30;99.90;;;;;;6165800;23;20028;-92
2022/03/15 09:36:47;;;;;;;4.35;2.08;;;12.50;99.90;;;;;;6165826;23;20013;-91
2022/03/15 09:39:15;;;;;;;5.47;2.42;;;12.50;99.90;;;;;;6166265;23;20000;-92
2022/03/15 09:41:42;;;;;;;7.10;2.40;;;12.50;99.90;;;;;;6167193;23;20012;-90
2022/03/15 09:44:10;;;;;;;3.45;2.15;;;12.40;99.90;;;;;;6165384;23;20142;-91
2022/03/15 09:46:50;;;;;;;5.18;2.05;;;12.40;99.90;;;;;;6165502;23;20020;-92
2022/03/15 09:49:18;;;;;;;4.43;2.08;;;12.50;99.90;;;;;;6165483;23;20036;-91
2022/03/15 09:51:47;;;;;;;6.57;2.28;;;12.70;99.90;;;;;;6165434;23;20080;-93
2022/03/15 09:54:14;;;;;;;6.30;1.88;;;12.70;99.90;;;;;;6165681;23;20064;-91
2022/03/15 09:56:42;;;;;;;6.07;2.15;;;12.80;99.90;;;;;;6165399;23;20001;-91
2022/03/15 09:59:18;;;;;;;4.05;2.15;;;12.80;99.90;;;;;;6165366;23;20012;-93
2022/03/15 10:01:52;;;;;;;6.90;2.00;;;12.90;99.90;;;;;;6165369;23;20518;-93
2022/03/15 10:04:22;;;;;;;2.63;1.50;;;13.00;99.90;;;;;;6165468;23;20013;-91
2022/03/15 10:06:51;;;;;;;4.03;1.42;;;13.10;99.90;;;;;;6165240;23;20275;-93
2022/03/15 10:09:18;;;;;;;2.70;1.83;;;13.10;99.90;;;;;;6166362;23;20319;-92
2022/03/15 10:11:44;;;;;;;4.03;1.65;;;13.10;99.90;;;;;;6166571;23;20008;-92
2022/03/15 10:14:17;;;;;;;2.28;1.60;;;13.20;99.90;;;;;;6167101;23;20087;-94
2022/03/15 10:17:17;;;;;;;9.65;2.15;;;13.20;99.90;;;;;;6163739;22;20885;-92
2022/03/15 14:01:24;;;;;;;;;;;14.20;99.90;;;;;;6249185;22;20103;-93
2022/03/15 14:44:05;;;;;;;4.05;2.53;;;13.70;99.90;;;;;;6220662;22;20582;-92
2022/03/15 17:10:46;;;;;;;8.40;4.20;;;11.60;99.90;;;;;;6221469;22;20032;31
2022/03/15 19:24:20;;;;;;;16.63;5.07;;;9.10;99.90;;;;;;6214820;23;20053;-93
2022/03/15 19:26:56;;;;;;;13.68;5.05;;;9.20;99.90;;;;;;6156912;23;20001;-93
2022/03/15 19:29:42;;;;;;;12.82;6.05;;;9.10;99.90;;;;;;6149888;23;20018;-94
2022/03/15 19:35:20;;;;;;;;;;;;;;;;;;;;;
2022/03/15 19:47:12;;;;;;;19.23;9.18;;;8.90;99.90;;;;;;6255887;22;20010;-93
2022/03/15 19:49:48;;;;;;;19.67;7.82;;;8.90;99.90;;;;;;6159153;23;20009;-94
2022/03/15 19:52:22;;;;;;;26.38;8.23;;;8.80;99.90;;;;;;6199057;23;20005;-93
2022/03/15 19:55:24;;;;;;;20.92;9.70;;;8.80;99.90;;;;;;6200707;23;20091;-91
2022/03/15 19:57:51;;;;;;;20.10;9.07;;;8.70;99.90;;;;;;6159752;23;20033;-84
2022/03/15 20:00:19;;;;;;;21.33;9.57;;;8.60;99.90;;;;;;6193709;23;20005;-82
2022/03/15 20:02:49;;;;;;;24.48;9.63;;;8.60;99.90;;;;;;6198228;23;20013;-79
2022/03/15 20:05:20;;;;;;;19.15;8.30;;;8.50;99.90;;;;;;6173611;23;20005;-80
2022/03/15 20:07:53;;;;;;;18.35;7.80;;;8.50;99.90;;;;;;6192390;23;20009;-81
2022/03/15 20:10:29;;;;;;;19.23;9.03;;;8.40;99.90;;;;;;6138495;23;20462;-80
2022/03/15 20:13:00;;;;;;;25.10;9.52;;;8.40;99.90;;;;;;6188551;23;20137;-84
2022/03/15 20:15:32;;;;;;;17.58;8.10;;;8.30;99.90;;;;;;6189306;23;20013;-83
2022/03/15 20:18:08;;;;;;;18.17;7.88;;;8.30;99.90;;;;;;6159988;23;20009;-84
2022/03/15 20:20:39;;;;;;;16.85;7.30;;;8.30;99.90;;;;;;6199035;23;20358;-84
2022/03/15 20:23:08;;;;;;;19.65;7.72;;;8.20;99.90;;;;;;6165010;23;20009;-81
2022/03/15 20:25:38;;;;;;;18.33;7.70;;;8.20;99.90;;;;;;6164221;23;20023;-83
2022/03/15 20:28:07;;;;;;;22.70;8.93;;;8.20;99.90;;;;;;6189821;23;20020;-81
2022/03/15 20:30:36;;;;;;;21.63;8.52;;;8.10;99.90;;;;;;6216322;23;20004;-81
2022/03/15 20:33:07;;;;;;;22.17;10.30;;;8.10;99.90;;;;;;6195049;23;20011;-81
2022/03/15 20:35:40;;;;;;;23.33;10.60;;;8.00;99.90;;;;;;6213376;23;20012;-80
2022/03/15 20:38:08;;;;;;;20.42;9.32;;;7.90;99.90;;;;;;6220307;23;20430;-82
2022/03/15 20:40:38;;;;;;;29.50;12.20;;;7.90;99.90;;;;;;6248986;23;20441;-82
2022/03/15 20:45:53;;;;;;;22.15;10.20;;;7.90;99.90;;;;;;6219818;23;20099;-82
2022/03/15 20:48:21;;;;;;;22.30;10.63;;;7.80;99.90;;;;;;6195463;23;20015;-82
2022/03/15 20:50:48;;;;;;;24.70;10.10;;;7.80;99.90;;;;;;6220893;23;20032;-81
2022/03/15 20:53:20;;;;;;;32.35;11.13;;;7.80;99.90;;;;;;6223022;23;20004;-80
2022/03/15 20:55:47;;;;;;;28.75;12.65;;;7.80;99.90;;;;;;6196809;23;20012;-81
2022/03/15 20:58:15;;;;;;;24.00;12.65;;;7.70;99.90;;;;;;6221884;23;20421;-81
2022/03/15 21:00:43;;;;;;;30.27;12.30;;;7.70;99.90;;;;;;6222394;23;20446;-81
2022/03/15 21:03:11;;;;;;;33.17;12.88;;;7.70;99.90;;;;;;6250607;23;19996;-83
2022/03/15 21:05:39;;;;;;;25.50;11.80;;;7.70;99.90;;;;;;6197303;23;20019;-81
2022/03/15 21:08:07;;;;;;;32.53;12.73;;;7.70;99.90;;;;;;6196092;23;20342;-81
2022/03/15 21:10:36;;;;;;;32.30;12.73;;;7.70;99.90;;;;;;6194925;23;20307;-82
2022/03/15 21:13:04;;;;;;;22.33;11.57;;;7.70;99.90;;;;;;6219467;23;20083;-81
2022/03/15 21:15:31;;;;;;;28.88;11.32;;;7.70;99.90;;;;;;6246898;23;20023;-81
2022/03/15 21:18:06;;;;;;;33.78;12.95;;;7.60;99.90;;;;;;6194642;23;20434;-80
2022/03/15 21:20:37;;;;;;;24.50;11.65;;;7.60;99.90;;;;;;6219944;23;20469;-82
2022/03/15 21:23:07;;;;;;;31.23;12.80;;;7.50;99.90;;;;;;6194955;23;20012;-82
2022/03/15 21:25:37;;;;;;;26.88;14.45;;;7.50;99.90;;;;;;6194710;23;20198;-79
2022/03/15 21:28:05;;;;;;;33.08;14.32;;;7.50;99.90;;;;;;6189799;23;20031;-82
2022/03/15 21:30:33;;;;;;;35.60;14.30;;;7.50;99.90;;;;;;6164942;23;20008;-81
2022/03/15 21:33:00;;;;;;;40.63;16.02;;;7.40;99.90;;;;;;6189949;23;20106;-82
2022/03/15 21:35:26;;;;;;;41.08;17.15;;;7.40;99.90;;;;;;6190188;23;19997;-82
2022/03/15 21:37:55;;;;;;;36.80;16.35;;;7.30;99.90;;;;;;6189672;23;20016;-81
2022/03/15 21:40:28;;;;;;;40.13;16.73;;;7.30;99.90;;;;;;6190082;23;20005;-83
2022/03/15 21:42:54;;;;;;;41.90;17.55;;;7.30;99.90;;;;;;6165435;23;20016;-82
2022/03/15 21:45:23;;;;;;;38.03;16.77;;;7.30;99.90;;;;;;6165150;23;20414;-83
2022/03/15 21:47:50;;;;;;;32.05;15.63;;;7.20;99.90;;;;;;6189763;23;20024;-82
2022/03/15 21:50:17;;;;;;;46.40;17.77;;;7.20;99.90;;;;;;6216398;23;20075;-83
2022/03/15 21:52:45;;;;;;;43.92;18.60;;;7.20;99.90;;;;;;6190720;23;20005;-83
2022/03/15 21:55:15;;;;;;;45.42;18.60;;;7.20;99.90;;;;;;6165186;23;20450;-82
2022/03/15 21:57:44;;;;;;;41.58;17.90;;;7.20;99.90;;;;;;6190366;23;20013;-83
2022/03/15 22:00:13;;;;;;;43.00;19.90;;;7.20;99.90;;;;;;6189544;23;20008;-82
2022/03/15 22:02:46;;;;;;;44.40;19.70;;;7.20;99.90;;;;;;6191394;23;20008;-82
2022/03/15 22:05:18;;;;;;;47.33;20.65;;;7.10;99.90;;;;;;6189822;23;20008;-82
2022/03/15 22:07:52;;;;;;;44.08;21.08;;;7.10;99.90;;;;;;6164693;23;20181;-83
2022/03/15 22:10:19;;;;;;;52.53;20.52;;;7.10;99.90;;;;;;6191469;23;20009;-83